createdAt,value
2019-03-12T00:00:33.489Z,2.4
2019-03-12T00:01:23.551Z,2.4
2019-03-12T00:02:13.597Z,2.4
2019-03-12T00:03:03.424Z,2.3
2019-03-12T00:03:53.444Z,2.3
2019-03-12T00:04:43.520Z,2.3
2019-03-12T00:05:33.574Z,2.3
2019-03-12T00:06:23.727Z,2.3
2019-03-12T00:07:13.980Z,2.3
2019-03-12T00:08:03.749Z,2.3
2019-03-12T00:08:53.632Z,2.3
2019-03-12T00:09:43.945Z,2.3
2019-03-12T00:10:33.957Z,2.3
2019-03-12T00:11:24.269Z,2.3
2019-03-12T00:12:14.332Z,2.3
2019-03-12T00:13:04.399Z,2.2
2019-03-12T00:13:54.452Z,2.2
2019-03-12T00:14:44.514Z,2.2
2019-03-12T00:15:34.581Z,2.2
2019-03-12T00:16:24.377Z,2.1
2019-03-12T00:17:14.404Z,2.1
2019-03-12T00:18:04.589Z,2.1
2019-03-12T00:18:53.996Z,2.1
2019-03-12T00:19:44.614Z,2.1
2019-03-12T00:20:34.381Z,2.1
2019-03-12T00:21:24.996Z,2
2019-03-12T00:22:14.511Z,2
2019-03-12T00:23:04.927Z,2
2019-03-12T00:23:54.904Z,1.9
2019-03-12T00:24:44.956Z,1.9
2019-03-12T00:25:35.086Z,1.9
2019-03-12T00:26:25.076Z,1.9
2019-03-12T00:27:15.183Z,1.9
2019-03-12T00:28:05.211Z,1.9
2019-03-12T00:28:54.983Z,1.8
2019-03-12T00:29:45.605Z,1.8
2019-03-12T00:30:35.220Z,1.8
2019-03-12T00:31:25.819Z,1.8
2019-03-12T00:32:15.525Z,1.8
2019-03-12T00:33:05.877Z,1.8
2019-03-12T00:33:55.649Z,1.7
2019-03-12T00:34:45.968Z,1.7
2019-03-12T00:35:35.750Z,1.7
2019-03-12T00:36:25.537Z,1.7
2019-03-12T00:37:15.873Z,1.6
2019-03-12T00:38:05.938Z,1.6
2019-03-12T00:38:56.267Z,1.6
2019-03-12T00:39:46.340Z,1.6
2019-03-12T00:40:36.221Z,1.6
2019-03-12T00:41:26.465Z,1.6
2019-03-12T00:42:15.965Z,1.6
2019-03-12T00:43:06.287Z,1.6
2019-03-12T00:43:56.353Z,1.5
2019-03-12T00:44:46.427Z,1.5
2019-03-12T00:45:36.757Z,1.5
2019-03-12T00:46:29.275Z,1.5
2019-03-12T00:47:16.325Z,1.5
2019-03-12T00:48:06.662Z,1.5
2019-03-12T00:48:57.011Z,1.4
2019-03-12T00:49:47.065Z,1.4
2019-03-12T00:50:37.122Z,1.4
2019-03-12T00:51:26.626Z,1.4
2019-03-12T00:52:17.240Z,1.4
2019-03-12T00:53:06.750Z,1.4
2019-03-12T00:53:57.109Z,1.4
2019-03-12T00:54:47.150Z,1.4
2019-03-12T00:55:37.217Z,1.3
2019-03-12T00:56:27.275Z,1.4
2019-03-12T00:57:17.042Z,1.3
2019-03-12T00:58:07.662Z,1.3
2019-03-12T00:58:56.890Z,1.3
2019-03-12T00:59:47.271Z,1.3
2019-03-12T01:00:37.589Z,1.3
2019-03-12T01:01:27.947Z,1.3
2019-03-12T01:02:17.969Z,1.3
2019-03-12T01:03:07.768Z,1.2
2019-03-12T01:03:58.089Z,1.2
2019-03-12T01:04:47.886Z,1.2
2019-03-12T01:05:37.951Z,1.2
2019-03-12T01:06:28.275Z,1.1
2019-03-12T01:07:18.405Z,1.1
2019-03-12T01:08:07.849Z,1.1
2019-03-12T01:08:58.532Z,1.1
2019-03-12T01:09:47.964Z,1.1
2019-03-12T01:10:38.573Z,1
2019-03-12T01:11:28.631Z,1
2019-03-12T01:12:18.687Z,1
2019-03-12T01:13:08.307Z,0.9
2019-03-12T01:13:58.829Z,0.9
2019-03-12T01:14:48.598Z,0.9
2019-03-12T01:15:38.953Z,0.9
2019-03-12T01:16:28.164Z,0.9
2019-03-12T01:17:18.778Z,0.9
2019-03-12T01:18:08.843Z,0.9
2019-03-12T01:18:59.260Z,0.9
2019-03-12T01:19:49.234Z,0.9
2019-03-12T01:20:39.028Z,0.9
2019-03-12T01:21:29.120Z,0.9
2019-03-12T01:22:19.226Z,0.9
2019-03-12T01:23:09.196Z,0.8
2019-03-12T01:23:59.285Z,0.8
2019-03-12T01:24:49.348Z,0.8
2019-03-12T01:25:39.772Z,0.8
2019-03-12T01:26:29.458Z,0.8
2019-03-12T01:27:19.795Z,0.8
2019-03-12T01:28:09.864Z,0.8
2019-03-12T01:28:59.627Z,0.8
2019-03-12T01:29:49.976Z,0.8
2019-03-12T01:30:39.788Z,0.8
2019-03-12T01:31:29.817Z,0.8
2019-03-12T01:32:20.157Z,0.8
2019-03-12T01:33:09.922Z,0.7
2019-03-12T01:33:59.732Z,0.7
2019-03-12T01:34:49.790Z,0.7
2019-03-12T01:35:40.142Z,0.7
2019-03-12T01:36:30.446Z,0.7
2019-03-12T01:37:20.512Z,0.7
2019-03-12T01:38:10.302Z,0.7
2019-03-12T01:39:00.080Z,0.7
2019-03-12T01:39:50.402Z,0.7
2019-03-12T01:40:40.749Z,0.6
2019-03-12T01:41:29.697Z,0.7
2019-03-12T01:42:20.943Z,0.6
2019-03-12T01:43:10.414Z,0.6
2019-03-12T01:44:00.718Z,0.6
2019-03-12T01:44:50.789Z,0.6
2019-03-12T01:45:40.840Z,0.6
2019-03-12T01:46:31.177Z,0.6
2019-03-12T01:47:21.356Z,0.6
2019-03-12T01:48:11.018Z,0.6
2019-03-12T01:49:00.529Z,0.6
2019-03-12T01:49:51.419Z,0.6
2019-03-12T01:50:41.497Z,0.6
2019-03-12T01:51:33.704Z,0.6
2019-03-12T01:52:21.599Z,0.6
2019-03-12T01:53:11.384Z,0.6
2019-03-12T01:54:01.457Z,0.6
2019-03-12T01:54:51.508Z,0.6
2019-03-12T01:55:41.576Z,0.6
2019-03-12T01:56:31.631Z,0.6
2019-03-12T01:57:22.046Z,0.6
2019-03-12T01:58:15.410Z,0.6
2019-03-12T01:59:01.544Z,0.6
2019-03-12T01:59:51.864Z,0.6
2019-03-12T02:00:41.935Z,0.6
2019-03-12T02:01:32.010Z,0.5
2019-03-12T02:02:22.321Z,0.5
2019-03-12T02:03:12.171Z,0.5
2019-03-12T02:04:02.216Z,0.5
2019-03-12T02:04:51.681Z,0.5
2019-03-12T02:05:42.283Z,0.5
2019-03-12T02:06:32.360Z,0.5
2019-03-12T02:07:22.702Z,0.5
2019-03-12T02:08:12.751Z,0.5
2019-03-12T02:09:02.886Z,0.5
2019-03-12T02:09:52.893Z,0.5
2019-03-12T02:10:42.741Z,0.5
2019-03-12T02:11:33.010Z,0.5
2019-03-12T02:12:22.783Z,0.5
2019-03-12T02:13:12.834Z,0.4
2019-03-12T02:14:03.180Z,0.4
2019-03-12T02:14:52.985Z,0.5
2019-03-12T02:15:43.029Z,0.4
2019-03-12T02:16:36.622Z,0.5
2019-03-12T02:17:23.185Z,0.4
2019-03-12T02:18:13.200Z,0.4
2019-03-12T02:19:03.270Z,0.4
2019-03-12T02:19:53.407Z,0.4
2019-03-12T02:20:43.657Z,0.4
2019-03-12T02:21:33.708Z,0.4
2019-03-12T02:22:23.495Z,0.4
2019-03-12T02:23:13.564Z,0.4
2019-03-12T02:24:03.676Z,0.4
2019-03-12T02:24:55.552Z,0.4
2019-03-12T02:25:44.019Z,0.4
2019-03-12T02:26:33.539Z,0.4
2019-03-12T02:27:23.857Z,0.4
2019-03-12T02:28:13.922Z,0.4
2019-03-12T02:29:04.267Z,0.4
2019-03-12T02:29:54.324Z,0.4
2019-03-12T02:30:44.247Z,0.4
2019-03-12T02:31:34.218Z,0.4
2019-03-12T02:32:23.966Z,0.4
2019-03-12T02:33:14.260Z,0.4
2019-03-12T02:34:04.682Z,0.4
2019-03-12T02:34:54.496Z,0.4
2019-03-12T02:35:44.364Z,0.4
2019-03-12T02:36:34.594Z,0.4
2019-03-12T02:37:24.602Z,0.4
2019-03-12T02:38:14.946Z,0.4
2019-03-12T02:39:05.009Z,0.4
2019-03-12T02:39:55.087Z,0.4
2019-03-12T02:40:45.158Z,0.4
2019-03-12T02:41:34.922Z,0.4
2019-03-12T02:42:24.986Z,0.4
2019-03-12T02:43:15.370Z,0.4
2019-03-12T02:44:05.144Z,0.4
2019-03-12T02:44:55.451Z,0.4
2019-03-12T02:45:45.558Z,0.4
2019-03-12T02:46:35.574Z,0.3
2019-03-12T02:47:25.436Z,0.4
2019-03-12T02:48:15.125Z,0.3
2019-03-12T02:49:10.918Z,0.3
2019-03-12T02:49:55.798Z,0.4
2019-03-12T02:50:45.321Z,0.3
2019-03-12T02:51:35.916Z,0.3
2019-03-12T02:52:26.052Z,0.3
2019-03-12T02:53:16.044Z,0.3
2019-03-12T02:54:05.701Z,0.3
2019-03-12T02:54:55.881Z,0.3
2019-03-12T02:55:46.209Z,0.3
2019-03-12T02:56:36.018Z,0.3
2019-03-12T02:57:26.076Z,0.3
2019-03-12T02:58:16.418Z,0.3
2019-03-12T02:59:06.487Z,0.3
2019-03-12T02:59:55.758Z,0.3
2019-03-12T03:00:46.051Z,0.3
2019-03-12T03:01:36.522Z,0.3
2019-03-12T03:02:26.344Z,0.3
2019-03-12T03:03:16.769Z,0.3
2019-03-12T03:04:06.858Z,0.3
2019-03-12T03:07:36.955Z,0.3
2019-03-12T03:08:27.649Z,0.3
2019-03-12T03:09:17.424Z,0.3
2019-03-12T03:10:07.680Z,0.3
2019-03-12T03:10:57.497Z,0.3
2019-03-12T03:11:51.527Z,0.3
2019-03-12T03:12:37.842Z,0.3
2019-03-12T03:13:27.383Z,0.3
2019-03-12T03:14:17.960Z,0.3
2019-03-12T03:15:07.468Z,0.4
2019-03-12T03:15:58.122Z,0.3
2019-03-12T03:16:47.881Z,0.3
2019-03-12T03:17:37.945Z,0.3
2019-03-12T03:18:28.015Z,0.3
2019-03-12T03:19:18.053Z,0.3
2019-03-12T03:20:08.148Z,0.3
2019-03-12T03:20:58.306Z,0.3
2019-03-12T03:21:48.225Z,0.3
2019-03-12T03:22:38.566Z,0.3
2019-03-12T03:23:28.392Z,0.3
2019-03-12T03:24:18.730Z,0.3
2019-03-12T03:25:08.754Z,0.3
2019-03-12T03:25:58.553Z,0.3
2019-03-12T03:26:48.906Z,0.3
2019-03-12T03:27:38.681Z,0.3
2019-03-12T03:28:28.999Z,0.3
2019-03-12T03:29:18.786Z,0.3
2019-03-12T03:30:09.116Z,0.3
2019-03-12T03:30:59.279Z,0.3
2019-03-12T03:31:49.014Z,0.3
2019-03-12T03:32:39.353Z,0.3
2019-03-12T03:33:29.643Z,0.3
2019-03-12T03:34:26.744Z,0.3
2019-03-12T03:35:09.534Z,0.3
2019-03-12T03:35:59.577Z,0.3
2019-03-12T03:36:49.615Z,0.3
2019-03-12T03:37:39.643Z,0.3
2019-03-12T03:38:29.737Z,0.3
2019-03-12T03:39:19.795Z,0.3
2019-03-12T03:40:09.605Z,0.3
2019-03-12T03:40:59.775Z,0.3
2019-03-12T03:41:49.714Z,0.3
2019-03-12T03:42:39.545Z,0.3
2019-03-12T03:43:30.107Z,0.3
2019-03-12T03:44:19.653Z,0.3
2019-03-12T03:45:10.216Z,0.3
2019-03-12T03:46:00.273Z,0.3
2019-03-12T03:46:50.056Z,0.3
2019-03-12T03:47:40.455Z,0.3
2019-03-12T03:48:30.334Z,0.3
2019-03-12T03:49:20.553Z,0.3
2019-03-12T03:50:10.320Z,0.3
2019-03-12T03:51:00.408Z,0.3
2019-03-12T03:51:50.715Z,0.3
2019-03-12T03:52:40.797Z,0.3
2019-03-12T03:53:30.899Z,0.3
2019-03-12T03:54:20.634Z,0.3
2019-03-12T03:55:10.695Z,0.3
2019-03-12T03:56:00.993Z,0.3
2019-03-12T03:56:51.078Z,0.3
2019-03-12T03:57:40.906Z,0.3
2019-03-12T03:58:30.960Z,0.3
2019-03-12T03:59:21.064Z,0.3
2019-03-12T04:00:11.296Z,0.4
2019-03-12T04:01:01.372Z,0.3
2019-03-12T04:01:51.132Z,0.3
2019-03-12T04:02:41.523Z,0.4
2019-03-12T04:03:31.586Z,0.3
2019-03-12T04:04:21.682Z,0.3
2019-03-12T04:05:11.646Z,0.3
2019-03-12T04:06:01.251Z,0.3
2019-03-12T04:06:51.812Z,0.3
2019-03-12T04:07:41.553Z,0.4
2019-03-12T04:08:31.656Z,0.3
2019-03-12T04:09:21.712Z,0.3
2019-03-12T04:10:12.032Z,0.4
2019-03-12T04:11:01.831Z,0.3
2019-03-12T04:11:51.857Z,0.4
2019-03-12T04:12:41.944Z,0.3
2019-03-12T04:13:32.308Z,0.4
2019-03-12T04:14:22.047Z,0.4
2019-03-12T04:15:12.133Z,0.4
2019-03-12T04:16:02.645Z,0.3
2019-03-12T04:16:52.281Z,0.4
2019-03-12T04:17:42.644Z,0.3
2019-03-12T04:18:32.373Z,0.4
2019-03-12T04:19:22.412Z,0.4
2019-03-12T04:20:12.502Z,0.4
2019-03-12T04:21:02.849Z,0.4
2019-03-12T04:21:52.900Z,0.4
2019-03-12T04:22:43.031Z,0.4
2019-03-12T04:23:32.810Z,0.4
2019-03-12T04:24:22.766Z,0.4
2019-03-12T04:25:12.986Z,0.3
2019-03-12T04:26:02.916Z,0.4
2019-03-12T04:26:52.992Z,0.4
2019-03-12T04:27:43.323Z,0.4
2019-03-12T04:28:33.381Z,0.4
2019-03-12T04:29:23.433Z,0.4
2019-03-12T04:30:12.939Z,0.4
2019-03-12T04:31:03.545Z,0.4
2019-03-12T04:31:53.613Z,0.4
2019-03-12T04:32:43.370Z,0.4
2019-03-12T04:33:33.251Z,0.4
2019-03-12T04:34:23.487Z,0.4
2019-03-12T04:35:13.636Z,0.4
2019-03-12T04:36:03.372Z,0.4
2019-03-12T04:36:53.801Z,0.4
2019-03-12T04:37:43.994Z,0.4
2019-03-12T04:38:33.782Z,0.4
2019-03-12T04:39:24.116Z,0.4
2019-03-12T04:40:13.719Z,0.4
2019-03-12T04:41:03.959Z,0.4
2019-03-12T04:41:54.292Z,0.4
2019-03-12T04:42:44.112Z,0.4
2019-03-12T04:43:34.734Z,0.4
2019-03-12T04:44:24.577Z,0.4
2019-03-12T04:45:14.645Z,0.4
2019-03-12T04:46:04.324Z,0.4
2019-03-12T04:46:54.132Z,0.4
2019-03-12T04:47:44.516Z,0.4
2019-03-12T04:48:34.772Z,0.4
2019-03-12T04:49:24.569Z,0.4
2019-03-12T04:50:14.637Z,0.4
2019-03-12T04:51:04.948Z,0.4
2019-03-12T04:51:55.008Z,0.4
2019-03-12T04:52:44.851Z,0.4
2019-03-12T04:53:38.399Z,0.4
2019-03-12T04:54:25.201Z,0.4
2019-03-12T04:55:15.003Z,0.4
2019-03-12T04:56:05.053Z,0.3
2019-03-12T04:56:55.390Z,0.3
2019-03-12T04:57:45.171Z,0.3
2019-03-12T04:58:35.223Z,0.3
2019-03-12T04:59:25.576Z,0.3
2019-03-12T05:00:15.085Z,0.3
2019-03-12T05:01:05.421Z,0.3
2019-03-12T05:01:55.458Z,0.3
2019-03-12T05:02:45.522Z,0.3
2019-03-12T05:03:35.306Z,0.4
2019-03-12T05:04:25.928Z,0.3
2019-03-12T05:05:15.986Z,0.3
2019-03-12T05:06:06.064Z,0.4
2019-03-12T05:06:55.825Z,0.4
2019-03-12T05:07:45.898Z,0.3
2019-03-12T05:08:36.228Z,0.3
2019-03-12T05:09:26.027Z,0.3
2019-03-12T05:10:16.382Z,0.4
2019-03-12T05:11:06.222Z,0.3
2019-03-12T05:11:56.507Z,0.3
2019-03-12T05:12:46.456Z,0.3
2019-03-12T05:13:36.115Z,0.3
2019-03-12T05:14:26.370Z,0.3
2019-03-12T05:15:16.474Z,0.3
2019-03-12T05:16:06.495Z,0.3
2019-03-12T05:16:56.320Z,0.3
2019-03-12T05:17:46.462Z,0.3
2019-03-12T05:18:36.387Z,0.3
2019-03-12T05:19:26.740Z,0.3
2019-03-12T05:20:16.805Z,0.3
2019-03-12T05:21:06.625Z,0.3
2019-03-12T05:21:56.645Z,0.3
2019-03-12T05:22:47.058Z,0.3
2019-03-12T05:23:37.042Z,0.3
2019-03-12T05:24:27.094Z,0.3
2019-03-12T05:25:17.447Z,0.3
2019-03-12T05:26:07.207Z,0.3
2019-03-12T05:26:57.568Z,0.3
2019-03-12T05:27:47.089Z,0.3
2019-03-12T05:28:37.409Z,0.3
2019-03-12T05:29:27.451Z,0.3
2019-03-12T05:30:17.814Z,0.3
2019-03-12T05:31:07.889Z,0.3
2019-03-12T05:31:57.622Z,0.3
2019-03-12T05:32:48.154Z,0.3
2019-03-12T05:33:37.757Z,0.3
2019-03-12T05:34:28.133Z,0.3
2019-03-12T05:35:17.919Z,0.3
2019-03-12T05:36:08.221Z,0.3
2019-03-12T05:36:58.282Z,0.4
2019-03-12T05:37:48.383Z,0.3
2019-03-12T05:38:38.439Z,0.3
2019-03-12T05:39:28.488Z,0.3
2019-03-12T05:40:18.516Z,0.3
2019-03-12T05:41:08.293Z,0.3
2019-03-12T05:41:58.631Z,0.3
2019-03-12T05:42:48.696Z,0.3
2019-03-12T05:43:38.466Z,0.3
2019-03-12T05:44:28.519Z,0.3
2019-03-12T05:45:18.640Z,0.4
2019-03-12T05:46:08.923Z,0.4
2019-03-12T05:46:58.981Z,0.3
2019-03-12T05:47:49.050Z,0.4
2019-03-12T05:48:38.849Z,0.4
2019-03-12T05:49:28.635Z,0.4
2019-03-12T05:50:18.683Z,0.4
2019-03-12T05:51:09.018Z,0.4
2019-03-12T05:51:58.616Z,0.4
2019-03-12T05:52:51.208Z,0.4
2019-03-12T05:53:39.470Z,0.4
2019-03-12T05:54:29.282Z,0.4
2019-03-12T05:55:19.605Z,0.4
2019-03-12T05:56:09.648Z,0.4
2019-03-12T05:56:59.429Z,0.4
2019-03-12T05:57:49.890Z,0.4
2019-03-12T05:58:39.285Z,0.4
2019-03-12T05:59:29.980Z,0.4
2019-03-12T06:00:19.684Z,0.4
2019-03-12T06:01:10.024Z,0.4
2019-03-12T06:01:59.255Z,0.4
2019-03-12T06:02:49.594Z,0.4
2019-03-12T06:03:39.937Z,0.4
2019-03-12T06:05:36.795Z,0.4
2019-03-12T06:06:26.902Z,0.4
2019-03-12T06:07:17.255Z,0.4
2019-03-12T06:08:07.299Z,0.4
2019-03-12T06:08:57.318Z,0.4
2019-03-12T06:09:47.635Z,0.4
2019-03-12T06:10:37.423Z,0.4
2019-03-12T06:11:27.755Z,0.4
2019-03-12T06:12:17.822Z,0.4
2019-03-12T06:13:07.892Z,0.4
2019-03-12T06:13:57.674Z,0.5
2019-03-12T06:14:47.999Z,0.5
2019-03-12T06:15:38.064Z,0.5
2019-03-12T06:16:28.122Z,0.5
2019-03-12T06:17:18.249Z,0.5
2019-03-12T06:18:08.327Z,0.5
2019-03-12T06:18:58.051Z,0.6
2019-03-12T06:19:48.072Z,0.6
2019-03-12T06:20:38.147Z,0.6
2019-03-12T06:21:28.487Z,0.6
2019-03-12T06:22:18.294Z,0.6
2019-03-12T06:23:07.773Z,0.6
2019-03-12T06:23:58.672Z,0.6
2019-03-12T06:24:48.714Z,0.6
2019-03-12T06:25:38.816Z,0.7
2019-03-12T06:26:28.829Z,0.7
2019-03-12T06:27:19.954Z,0.7
2019-03-12T06:28:08.668Z,0.7
2019-03-12T06:28:59.021Z,0.8
2019-03-12T06:29:48.539Z,0.8
2019-03-12T06:30:39.141Z,0.8
2019-03-12T06:31:28.905Z,0.8
2019-03-12T06:32:19.250Z,0.8
2019-03-12T06:33:09.313Z,0.8
2019-03-12T06:33:59.115Z,0.8
2019-03-12T06:34:49.443Z,0.8
2019-03-12T06:35:39.251Z,0.9
2019-03-12T06:36:29.551Z,0.9
2019-03-12T06:37:19.065Z,0.9
2019-03-12T06:38:09.718Z,0.9
2019-03-12T06:38:59.460Z,1
2019-03-12T06:39:49.813Z,1
2019-03-12T06:40:39.859Z,1
2019-03-12T06:41:29.644Z,1.1
2019-03-12T06:42:19.970Z,1.1
2019-03-12T06:43:10.054Z,1.1
2019-03-12T06:44:00.108Z,1.1
2019-03-12T06:44:50.157Z,1.2
2019-03-12T06:45:40.232Z,1.2
2019-03-12T06:46:30.002Z,1.2
2019-03-12T06:47:20.057Z,1.3
2019-03-12T06:48:09.868Z,1.3
2019-03-12T06:49:00.450Z,1.3
2019-03-12T06:49:50.539Z,1.3
2019-03-12T06:50:40.579Z,1.4
2019-03-12T06:51:30.132Z,1.4
2019-03-12T06:52:20.717Z,1.4
2019-03-12T06:53:10.478Z,1.4
2019-03-12T06:54:00.816Z,1.5
2019-03-12T06:54:50.885Z,1.6
2019-03-12T06:55:43.391Z,1.6
2019-03-12T06:56:30.745Z,1.6
2019-03-12T06:57:20.499Z,1.6
2019-03-12T06:58:11.109Z,1.7
2019-03-12T06:59:00.622Z,1.8
2019-03-12T06:59:51.232Z,1.8
2019-03-12T07:00:41.032Z,1.9
2019-03-12T07:01:31.081Z,1.9
2019-03-12T07:02:21.412Z,1.9
2019-03-12T07:03:11.194Z,1.9
2019-03-12T07:05:37.009Z,2.1
2019-03-12T07:06:27.082Z,2.1
2019-03-12T07:07:19.624Z,2.2
2019-03-12T07:08:08.941Z,2.3
2019-03-12T07:08:57.534Z,2.3
2019-03-12T07:09:47.772Z,2.3
2019-03-12T07:10:37.364Z,2.4
2019-03-12T07:11:27.411Z,2.4
2019-03-12T07:12:17.762Z,2.6
2019-03-12T07:13:07.873Z,2.6
2019-03-12T07:13:57.877Z,2.6
2019-03-12T07:14:47.939Z,2.8
2019-03-12T07:15:37.745Z,2.8
2019-03-12T07:16:27.507Z,2.9
2019-03-12T07:17:17.606Z,2.9
2019-03-12T07:18:07.901Z,3.1
2019-03-12T07:18:58.223Z,3.2
2019-03-12T07:19:48.013Z,3.3
2019-03-12T07:20:38.078Z,3.4
2019-03-12T07:21:28.128Z,3.5
2019-03-12T07:22:18.197Z,3.6
2019-03-12T07:23:08.538Z,3.8
2019-03-12T07:23:58.313Z,3.9
2019-03-12T07:24:48.389Z,4.1
2019-03-12T07:25:38.706Z,4.3
2019-03-12T07:26:28.763Z,4.4
2019-03-12T07:27:18.560Z,4.6
2019-03-12T07:28:08.898Z,4.8
2019-03-12T07:28:58.955Z,5
2019-03-12T07:29:49.007Z,5.2
2019-03-12T07:30:38.830Z,5.4
2019-03-12T07:31:30.082Z,5.6
2019-03-12T07:32:18.909Z,5.8
2019-03-12T07:33:08.978Z,6
2019-03-12T07:33:59.039Z,6.3
2019-03-12T07:34:49.342Z,6.4
2019-03-12T07:35:39.168Z,6.6
2019-03-12T07:36:29.220Z,6.8
2019-03-12T07:37:19.282Z,7
2019-03-12T07:38:09.608Z,7.2
2019-03-12T07:38:59.686Z,7.3
2019-03-12T07:39:49.462Z,7.5
2019-03-12T07:40:39.254Z,7.6
2019-03-12T07:41:35.042Z,7.8
2019-03-12T07:42:19.629Z,7.9
2019-03-12T07:43:09.410Z,8.1
2019-03-12T07:44:00.046Z,8.1
2019-03-12T07:44:50.097Z,8.3
2019-03-12T07:45:43.587Z,8.4
2019-03-12T07:46:30.039Z,8.5
2019-03-12T07:47:20.189Z,8.5
2019-03-12T07:48:24.444Z,8.6
2019-03-12T07:49:00.119Z,8.7
2019-03-12T07:49:50.461Z,8.8
2019-03-12T07:50:40.261Z,8.8
2019-03-12T07:51:29.776Z,8.9
2019-03-12T07:52:20.361Z,8.9
2019-03-12T07:53:10.132Z,8.9
2019-03-12T07:54:02.324Z,8.9
2019-03-12T07:54:50.811Z,9
2019-03-12T07:55:40.936Z,9
2019-03-12T07:56:30.961Z,9
2019-03-12T07:57:21.031Z,9
2019-03-12T07:58:10.808Z,9.1
2019-03-12T07:59:00.821Z,9
2019-03-12T07:59:51.168Z,9
2019-03-12T08:00:41.234Z,9
2019-03-12T08:01:31.298Z,9
2019-03-12T08:02:21.066Z,9
2019-03-12T08:03:11.158Z,9
2019-03-12T08:04:01.779Z,9
2019-03-12T08:04:51.255Z,9
2019-03-12T08:05:41.313Z,9
2019-03-12T08:06:31.367Z,9
2019-03-12T08:07:21.452Z,9
2019-03-12T08:08:11.486Z,9
2019-03-12T08:09:01.836Z,9
2019-03-12T08:09:51.327Z,8.9
2019-03-12T08:10:41.966Z,8.9
2019-03-12T08:11:32.008Z,8.9
2019-03-12T08:12:22.056Z,8.9
2019-03-12T08:13:12.136Z,8.9
2019-03-12T08:14:01.904Z,8.9
2019-03-12T08:14:52.260Z,8.9
2019-03-12T08:15:42.321Z,8.9
2019-03-12T08:16:32.363Z,8.9
2019-03-12T08:17:21.887Z,8.9
2019-03-12T08:18:12.524Z,8.9
2019-03-12T08:19:02.285Z,8.9
2019-03-12T08:19:52.365Z,8.9
2019-03-12T08:20:42.395Z,8.9
2019-03-12T08:21:32.477Z,8.9
2019-03-12T08:22:22.516Z,8.8
2019-03-12T08:23:12.572Z,8.8
2019-03-12T08:24:02.633Z,8.8
2019-03-12T08:24:52.687Z,8.8
2019-03-12T08:25:46.064Z,8.8
2019-03-12T08:26:33.100Z,8.8
2019-03-12T08:27:25.895Z,8.8
2019-03-12T08:28:12.927Z,8.8
2019-03-12T08:29:03.274Z,8.8
2019-03-12T08:29:53.339Z,8.8
2019-03-12T08:30:43.112Z,8.8
2019-03-12T08:31:33.181Z,8.8
2019-03-12T08:32:26.337Z,8.8
2019-03-12T08:33:13.060Z,8.8
2019-03-12T08:34:03.631Z,8.8
2019-03-12T08:34:53.734Z,8.8
2019-03-12T08:35:43.788Z,8.8
2019-03-12T08:36:33.297Z,8.8
2019-03-12T08:37:23.898Z,8.7
2019-03-12T08:38:13.952Z,8.8
2019-03-12T08:39:03.988Z,8.8
2019-03-12T08:39:53.872Z,8.8
2019-03-12T08:40:58.752Z,8.7
2019-03-12T08:41:33.881Z,8.7
2019-03-12T08:42:23.946Z,8.7
2019-03-12T08:43:14.196Z,8.8
2019-03-12T08:44:04.156Z,8.7
2019-03-12T08:44:54.433Z,8.8
2019-03-12T08:45:51.097Z,8.8
2019-03-12T08:46:34.582Z,8.7
2019-03-12T08:47:24.071Z,8.7
2019-03-12T08:48:15.308Z,8.7
2019-03-12T08:49:04.744Z,8.7
2019-03-12T08:49:54.698Z,8.7
2019-03-12T08:50:44.310Z,8.7
2019-03-12T08:51:34.631Z,8.7
2019-03-12T08:52:24.506Z,8.6
2019-03-12T08:53:14.764Z,8.6
2019-03-12T08:54:05.097Z,8.6
2019-03-12T08:54:57.106Z,8.6
2019-03-12T08:55:45.219Z,8.6
2019-03-12T08:56:35.305Z,8.6
2019-03-12T08:57:25.046Z,8.6
2019-03-12T08:58:15.396Z,8.6
2019-03-12T08:59:05.164Z,8.6
2019-03-12T08:59:55.501Z,8.5
2019-03-12T09:00:44.988Z,8.4
2019-03-12T09:01:35.609Z,8.4
2019-03-12T09:02:25.671Z,8.4
2019-03-12T09:03:15.446Z,8.4
2019-03-12T09:04:05.811Z,8.3
2019-03-12T09:04:55.850Z,8.3
2019-03-12T09:05:45.885Z,8.3
2019-03-12T09:06:35.680Z,8.3
2019-03-12T09:07:25.741Z,8.2
2019-03-12T09:08:16.098Z,8.2
2019-03-12T09:09:06.128Z,8.1
2019-03-12T09:09:56.205Z,8.1
2019-03-12T09:10:45.980Z,8.1
2019-03-12T09:11:36.389Z,8
2019-03-12T09:12:26.092Z,7.9
2019-03-12T09:13:16.443Z,7.9
2019-03-12T09:14:05.954Z,8
2019-03-12T09:14:56.552Z,7.9
2019-03-12T09:15:46.620Z,7.9
2019-03-12T09:16:36.112Z,7.9
2019-03-12T09:17:26.744Z,7.9
2019-03-12T09:18:16.804Z,7.8
2019-03-12T09:19:06.847Z,7.8
2019-03-12T09:19:56.706Z,7.9
2019-03-12T09:20:46.959Z,7.9
2019-03-12T09:21:36.747Z,7.9
2019-03-12T09:22:27.089Z,7.9
2019-03-12T09:23:17.219Z,7.9
2019-03-12T09:24:07.206Z,7.9
2019-03-12T09:24:57.344Z,7.9
2019-03-12T09:25:47.354Z,7.9
2019-03-12T09:26:36.816Z,7.9
2019-03-12T09:27:27.158Z,7.9
2019-03-12T09:28:17.526Z,7.9
2019-03-12T09:29:07.575Z,7.9
2019-03-12T09:29:57.379Z,7.9
2019-03-12T09:30:47.154Z,7.9
2019-03-12T09:31:37.736Z,7.9
2019-03-12T09:32:27.522Z,7.9
2019-03-12T09:33:17.853Z,8
2019-03-12T09:34:07.926Z,8
2019-03-12T09:34:57.694Z,8
2019-03-12T09:35:47.471Z,8
2019-03-12T09:36:37.256Z,8
2019-03-12T09:37:27.903Z,7.9
2019-03-12T09:38:18.031Z,7.9
2019-03-12T09:39:08.290Z,7.9
2019-03-12T09:39:58.343Z,7.9
2019-03-12T09:40:47.848Z,7.9
2019-03-12T09:41:38.282Z,7.9
2019-03-12T09:42:28.238Z,7.9
2019-03-12T09:43:18.024Z,7.9
2019-03-12T09:44:08.655Z,7.9
2019-03-12T09:44:58.690Z,7.9
2019-03-12T09:45:48.782Z,7.8
2019-03-12T09:46:38.844Z,7.8
2019-03-12T09:47:28.595Z,7.8
2019-03-12T09:48:19.168Z,7.8
2019-03-12T09:49:08.737Z,7.8
2019-03-12T09:49:59.055Z,7.8
2019-03-12T09:50:49.118Z,7.8
2019-03-12T09:51:38.919Z,7.8
2019-03-12T09:52:28.977Z,7.8
2019-03-12T09:53:19.048Z,7.7
2019-03-12T09:54:08.855Z,7.8
2019-03-12T09:54:59.427Z,7.8
2019-03-12T09:55:49.654Z,7.8
2019-03-12T09:56:38.990Z,7.9
2019-03-12T09:57:29.059Z,7.9
2019-03-12T09:58:19.586Z,7.9
2019-03-12T09:59:09.450Z,8
2019-03-12T09:59:59.498Z,8.1
2019-03-12T10:00:49.002Z,8.2
2019-03-12T10:01:40.154Z,8.3
2019-03-12T10:02:30.005Z,8.4
2019-03-12T10:03:19.726Z,8.6
2019-03-12T10:04:10.030Z,8.8
2019-03-12T10:06:36.859Z,9.2
2019-03-12T10:07:26.942Z,9.4
2019-03-12T10:08:17.259Z,9.7
2019-03-12T10:09:06.836Z,9.9
2019-03-12T10:09:57.393Z,10.1
2019-03-12T10:10:47.165Z,10.3
2019-03-12T10:11:37.514Z,10.4
2019-03-12T10:12:27.563Z,10.7
2019-03-12T10:13:17.063Z,10.9
2019-03-12T10:14:06.868Z,11.1
2019-03-12T10:14:57.467Z,11.4
2019-03-12T10:15:47.245Z,11.6
2019-03-12T10:16:37.585Z,11.9
2019-03-12T10:17:27.921Z,12.1
2019-03-12T10:18:17.974Z,12.4
2019-03-12T10:19:08.072Z,12.8
2019-03-12T10:19:57.823Z,13.1
2019-03-12T10:20:48.244Z,13.4
2019-03-12T10:21:37.953Z,13.8
2019-03-12T10:22:28.006Z,14.3
2019-03-12T10:23:18.333Z,14.8
2019-03-12T10:24:08.393Z,15.1
2019-03-12T10:24:58.266Z,15.6
2019-03-12T10:25:48.238Z,16.1
2019-03-12T10:26:38.565Z,16.6
2019-03-12T10:28:18.683Z,17.4
2019-03-12T10:29:08.745Z,17.8
2019-03-12T10:29:58.550Z,18.1
2019-03-12T10:30:48.932Z,18.5
2019-03-12T10:31:38.397Z,18.9
2019-03-12T10:32:29.002Z,19.2
2019-03-12T10:33:19.081Z,19.5
2019-03-12T10:34:08.825Z,19.6
2019-03-12T10:34:58.900Z,19.9
2019-03-12T10:35:49.586Z,20.1
2019-03-12T10:36:39.302Z,20.4
2019-03-12T10:37:29.080Z,20.6
2019-03-12T10:38:19.133Z,20.8
2019-03-12T10:39:09.465Z,20.9
2019-03-12T10:39:59.297Z,21
2019-03-12T10:40:49.688Z,21.1
2019-03-12T10:43:19.785Z,21.1
2019-03-12T10:44:09.290Z,21
2019-03-12T10:44:59.887Z,21.1
2019-03-12T10:45:49.679Z,21.1
2019-03-12T10:46:40.011Z,21
2019-03-12T10:47:29.782Z,20.9
2019-03-12T10:48:20.185Z,20.9
2019-03-12T10:49:09.926Z,20.9
2019-03-12T10:49:59.974Z,20.8
2019-03-12T10:50:50.312Z,20.8
2019-03-12T10:51:40.374Z,20.8
2019-03-12T10:52:30.149Z,20.7
2019-03-12T10:53:20.256Z,20.6
2019-03-12T10:54:10.009Z,20.5
2019-03-12T10:55:15.931Z,20.5
2019-03-12T10:55:50.396Z,20.4
2019-03-12T10:56:40.736Z,20.4
2019-03-12T10:57:30.514Z,20.3
2019-03-12T10:58:20.846Z,20.2
2019-03-12T10:59:10.716Z,20.1
2019-03-12T11:00:00.909Z,20
2019-03-12T11:00:51.154Z,19.9
2019-03-12T11:01:41.098Z,19.9
2019-03-12T11:02:30.859Z,19.8
2019-03-12T11:03:21.211Z,19.7
2019-03-12T11:04:11.274Z,19.6
2019-03-12T11:05:01.453Z,19.6
2019-03-12T11:05:51.118Z,19.4
2019-03-12T11:06:40.933Z,19.4
2019-03-12T11:07:31.506Z,19.4
2019-03-12T11:08:21.318Z,19.3
2019-03-12T11:09:11.425Z,19.2
2019-03-12T11:10:01.701Z,19.1
2019-03-12T11:10:50.445Z,19
2019-03-12T11:11:41.575Z,18.9
2019-03-12T11:12:31.912Z,18.9
2019-03-12T11:13:21.665Z,18.8
2019-03-12T11:15:02.298Z,18.6
2019-03-12T11:15:51.843Z,18.6
2019-03-12T11:16:41.605Z,18.5
2019-03-12T11:17:31.948Z,18.4
2019-03-12T11:18:21.265Z,18.4
2019-03-12T11:19:12.070Z,18.4
2019-03-12T11:20:02.413Z,18.3
2019-03-12T11:20:52.467Z,18.2
2019-03-12T11:21:42.515Z,18.1
2019-03-12T11:22:32.318Z,18.1
2019-03-12T11:23:22.680Z,17.9
2019-03-12T11:24:12.419Z,17.8
2019-03-12T11:25:02.790Z,17.8
2019-03-12T11:25:52.811Z,17.7
2019-03-12T11:26:42.597Z,17.6
2019-03-12T11:27:32.933Z,17.6
2019-03-12T11:28:22.447Z,17.5
2019-03-12T11:29:13.072Z,17.4
2019-03-12T11:30:02.875Z,17.3
2019-03-12T11:30:53.281Z,17.3
2019-03-12T11:31:42.707Z,17.1
2019-03-12T11:32:33.307Z,17.1
2019-03-12T11:34:13.432Z,16.9
2019-03-12T11:35:03.277Z,16.8
2019-03-12T11:35:53.041Z,16.8
2019-03-12T11:36:43.854Z,16.6
2019-03-12T11:37:33.524Z,16.6
2019-03-12T11:38:23.919Z,16.5
2019-03-12T11:39:13.359Z,16.4
2019-03-12T11:40:04.795Z,16.3